createdAt,value
2016-11-30T00:00:25.214Z,190.84
2016-11-30T00:01:25.172Z,190.88
2016-11-30T00:02:25.175Z,191.18
2016-11-30T00:03:25.142Z,190.13
2016-11-30T00:04:25.192Z,187.63
2016-11-30T00:05:25.281Z,184.91
2016-11-30T00:06:25.953Z,186.6
2016-11-30T00:07:25.215Z,184.82
2016-11-30T00:08:25.192Z,184.82
2016-11-30T00:09:25.254Z,185.28
2016-11-30T00:10:25.183Z,182.6
2016-11-30T00:11:25.235Z,190.85
2016-11-30T00:12:25.233Z,191.6
2016-11-30T00:13:25.174Z,195.7
2016-11-30T00:14:25.218Z,196.68
2016-11-30T00:15:25.284Z,197.95
2016-11-30T00:16:25.219Z,193.62
2016-11-30T00:17:25.324Z,192.64
2016-11-30T00:18:25.369Z,192.18
2016-11-30T00:19:25.301Z,189.52
2016-11-30T00:20:25.286Z,192.78
2016-11-30T00:21:25.205Z,190.81
2016-11-30T00:22:25.229Z,195.18
2016-11-30T00:23:25.234Z,196.71
2016-11-30T00:24:25.397Z,193.84
2016-11-30T00:25:25.388Z,196.79
2016-11-30T00:26:25.328Z,198.44
2016-11-30T00:27:25.283Z,194.99
2016-11-30T00:28:25.221Z,191.62
2016-11-30T00:29:25.225Z,184.92
2016-11-30T00:30:25.143Z,189.57
2016-11-30T00:31:25.167Z,192.47
2016-11-30T00:32:25.212Z,195.05
2016-11-30T00:33:25.227Z,192.63
2016-11-30T00:34:25.264Z,197.21
2016-11-30T00:35:25.189Z,200.2
2016-11-30T00:36:25.152Z,199.09
2016-11-30T00:37:25.260Z,197.16
2016-11-30T00:38:25.204Z,193.27
2016-11-30T00:39:25.287Z,189.15
2016-11-30T00:40:25.260Z,185
2016-11-30T00:41:25.254Z,189.34
2016-11-30T00:42:25.217Z,189.99
2016-11-30T00:43:25.272Z,187.51
2016-11-30T00:44:25.307Z,184.53
2016-11-30T00:45:25.225Z,184.42
2016-11-30T00:46:25.271Z,182.68
2016-11-30T00:47:25.445Z,182.15
2016-11-30T00:48:26.177Z,187.13
2016-11-30T00:49:25.275Z,185.79
2016-11-30T00:50:25.186Z,190.88
2016-11-30T00:51:25.097Z,189.09
2016-11-30T00:52:25.257Z,188.35
2016-11-30T00:53:25.183Z,186.15
2016-11-30T00:54:25.251Z,187.94
2016-11-30T00:55:25.201Z,185.85
2016-11-30T00:56:25.149Z,188.87
2016-11-30T00:57:25.190Z,188.45
2016-11-30T00:58:25.260Z,190.1
2016-11-30T00:59:25.288Z,187.93
2016-11-30T01:00:25.225Z,194.13
2016-11-30T01:01:25.173Z,191
2016-11-30T01:02:25.124Z,196
2016-11-30T01:03:25.213Z,195.96
2016-11-30T01:04:25.215Z,202.92
2016-11-30T01:05:25.139Z,203.74
2016-11-30T01:06:25.182Z,205.14
2016-11-30T01:07:25.152Z,205.82
2016-11-30T01:08:25.136Z,206.81
2016-11-30T01:09:25.175Z,208.25
2016-11-30T01:10:25.167Z,208.42
2016-11-30T01:11:25.174Z,205.32
2016-11-30T01:12:25.191Z,207.7
2016-11-30T01:13:25.172Z,210.22
2016-11-30T01:14:25.293Z,209.06
2016-11-30T01:15:25.233Z,210.06
2016-11-30T01:16:25.174Z,212.84
2016-11-30T01:17:25.161Z,211.73
2016-11-30T01:18:25.180Z,209.88
2016-11-30T01:19:25.205Z,213.74
2016-11-30T01:20:25.140Z,214
2016-11-30T01:21:25.196Z,216.62
2016-11-30T01:22:25.221Z,215.23
2016-11-30T01:23:25.187Z,212.81
2016-11-30T01:24:25.230Z,215.3
2016-11-30T01:25:25.147Z,218.47
2016-11-30T01:26:25.224Z,218.7
2016-11-30T01:27:25.232Z,219.32
2016-11-30T01:28:25.158Z,220.47
2016-11-30T01:29:25.235Z,220.39
2016-11-30T01:30:25.186Z,218.99
2016-11-30T01:31:25.199Z,215.92
2016-11-30T01:32:25.250Z,217.71
2016-11-30T01:33:25.174Z,217.54
2016-11-30T01:34:25.202Z,214.52
2016-11-30T01:35:25.218Z,213.08
2016-11-30T01:36:25.185Z,216.5
2016-11-30T01:37:25.211Z,216.94
2016-11-30T01:38:25.259Z,216.66
2016-11-30T01:39:25.287Z,214.1
2016-11-30T01:40:25.218Z,209.05
2016-11-30T01:41:25.208Z,211.09
2016-11-30T01:42:25.190Z,211.64
2016-11-30T01:43:25.144Z,210.97
2016-11-30T01:44:25.238Z,213.36
2016-11-30T01:45:25.238Z,214.55
2016-11-30T01:46:25.262Z,211.26
2016-11-30T01:47:25.241Z,205.43
2016-11-30T01:48:25.277Z,202.36
2016-11-30T01:49:25.274Z,199.52
2016-11-30T01:50:25.386Z,200.31
2016-11-30T01:51:25.266Z,200.98
2016-11-30T01:52:25.254Z,197.73
2016-11-30T01:53:25.290Z,201.31
2016-11-30T01:54:25.361Z,202.69
2016-11-30T01:55:25.228Z,201.24
2016-11-30T01:56:25.233Z,193.8
2016-11-30T01:57:25.213Z,196.29
2016-11-30T01:58:25.197Z,191.93
2016-11-30T01:59:25.250Z,190.54
2016-11-30T02:00:25.246Z,190.76
2016-11-30T02:01:25.206Z,192.53
2016-11-30T02:02:25.245Z,191.74
2016-11-30T02:03:25.194Z,187.65
2016-11-30T02:04:25.230Z,187.91
2016-11-30T02:05:25.196Z,179.64
2016-11-30T02:06:25.260Z,178.41
2016-11-30T02:07:25.271Z,179.17
2016-11-30T02:08:25.200Z,177.88
2016-11-30T02:09:25.340Z,177.59
2016-11-30T02:10:25.261Z,175.64
2016-11-30T02:11:25.222Z,172.69
2016-11-30T02:12:25.208Z,174.85
2016-11-30T02:13:25.202Z,170.67
2016-11-30T02:14:25.310Z,172.35
2016-11-30T02:15:25.251Z,174.98
2016-11-30T02:16:25.181Z,174.71
2016-11-30T02:17:25.251Z,178.09
2016-11-30T02:18:25.182Z,182
2016-11-30T02:19:25.280Z,180.74
2016-11-30T02:20:25.257Z,177.01
2016-11-30T02:21:25.278Z,174.65
2016-11-30T02:22:25.193Z,178.55
2016-11-30T02:23:25.274Z,176.16
2016-11-30T02:24:25.243Z,178.64
2016-11-30T02:25:25.255Z,171.82
2016-11-30T02:26:25.196Z,174.36
2016-11-30T02:27:25.246Z,171.63
2016-11-30T02:28:25.205Z,176.73
2016-11-30T02:29:25.266Z,174.03
2016-11-30T02:30:25.280Z,175.4
2016-11-30T02:31:25.250Z,173.95
2016-11-30T02:32:25.244Z,174.9
2016-11-30T02:33:25.236Z,173.23
2016-11-30T02:34:25.290Z,176.4
2016-11-30T02:35:25.252Z,175.61
2016-11-30T02:36:25.218Z,176.38
2016-11-30T02:37:25.275Z,171.18
2016-11-30T02:38:25.246Z,171.19
2016-11-30T02:39:25.303Z,175.41
2016-11-30T02:40:25.294Z,178.17
2016-11-30T02:41:25.233Z,179.07
2016-11-30T02:42:25.262Z,178.49
2016-11-30T02:43:25.325Z,180.01
2016-11-30T02:44:25.238Z,179.74
2016-11-30T02:45:25.214Z,181.18
2016-11-30T02:46:25.255Z,179.47
2016-11-30T02:47:25.267Z,172.8
2016-11-30T02:48:25.273Z,173.95
2016-11-30T02:49:25.325Z,176.87
2016-11-30T02:50:25.261Z,173.68
2016-11-30T02:51:25.276Z,173.38
2016-11-30T02:52:25.281Z,169.7
2016-11-30T02:53:25.245Z,171.68
2016-11-30T02:54:25.232Z,169.93
2016-11-30T02:55:25.272Z,171.27
2016-11-30T02:56:25.270Z,165.53
2016-11-30T02:57:25.270Z,169.16
2016-11-30T02:58:25.312Z,171.28
2016-11-30T02:59:25.299Z,173.06
2016-11-30T03:00:25.264Z,173.77
2016-11-30T03:01:25.246Z,174.51
2016-11-30T03:02:25.218Z,174.33
2016-11-30T03:03:25.261Z,175.53
2016-11-30T03:04:25.329Z,175.96
2016-11-30T03:05:25.283Z,170.31
2016-11-30T03:06:25.298Z,173.19
2016-11-30T03:07:25.288Z,170.04
2016-11-30T03:08:25.233Z,174.1
2016-11-30T03:09:25.321Z,171.33
2016-11-30T03:10:25.311Z,170.57
2016-11-30T03:11:25.291Z,170.29
2016-11-30T03:12:25.321Z,171.06
2016-11-30T03:13:25.330Z,172.76
2016-11-30T03:14:25.285Z,171.99
2016-11-30T03:15:25.289Z,174.21
2016-11-30T03:16:25.250Z,173.71
2016-11-30T03:17:25.322Z,173.45
2016-11-30T03:18:25.263Z,168.32
2016-11-30T03:19:25.317Z,167.82
2016-11-30T03:20:25.298Z,166.49
2016-11-30T03:21:25.271Z,168.76
2016-11-30T03:22:25.396Z,168.03
2016-11-30T03:23:25.320Z,165.51
2016-11-30T03:24:25.331Z,165.46
2016-11-30T03:25:25.280Z,162.19
2016-11-30T03:26:25.259Z,162.91
2016-11-30T03:27:25.308Z,164.86
2016-11-30T03:28:25.310Z,162.96
2016-11-30T03:29:25.290Z,167.46
2016-11-30T03:30:25.308Z,168.56
2016-11-30T03:31:25.278Z,168.11
2016-11-30T03:32:25.292Z,165.31
2016-11-30T03:33:25.220Z,161.69
2016-11-30T03:34:25.317Z,158.56
2016-11-30T03:35:25.290Z,156.67
2016-11-30T03:36:25.317Z,154.31
2016-11-30T03:37:25.379Z,151.54
2016-11-30T03:38:25.265Z,155.76
2016-11-30T03:39:25.296Z,149.86
2016-11-30T03:40:25.260Z,148.89
2016-11-30T03:41:25.226Z,147.4
2016-11-30T03:42:25.291Z,143.97
2016-11-30T03:43:25.338Z,141.48
2016-11-30T03:44:25.301Z,142.77
2016-11-30T03:45:25.313Z,141.51
2016-11-30T03:46:25.349Z,136.78
2016-11-30T03:47:25.327Z,138.5
2016-11-30T03:48:25.299Z,133.06
2016-11-30T03:49:25.304Z,136.18
2016-11-30T03:50:25.299Z,135.27
2016-11-30T03:51:25.265Z,131.79
2016-11-30T03:52:25.326Z,131.05
2016-11-30T03:53:25.317Z,130.34
2016-11-30T03:54:25.316Z,131.33
2016-11-30T03:55:25.324Z,129.3
2016-11-30T03:56:25.362Z,127.54
2016-11-30T03:57:25.309Z,127.06
2016-11-30T03:58:25.309Z,126.12
2016-11-30T03:59:25.318Z,127.12
2016-11-30T04:00:25.269Z,127.19
2016-11-30T04:01:25.322Z,126.92
2016-11-30T04:02:25.394Z,126.44
2016-11-30T04:03:25.332Z,122.67
2016-11-30T04:04:25.386Z,120.48
2016-11-30T04:05:25.352Z,119.83
2016-11-30T04:06:25.345Z,114.09
2016-11-30T04:07:25.386Z,110.03
2016-11-30T04:08:25.327Z,113.57
2016-11-30T04:09:25.419Z,114.34
2016-11-30T04:10:25.379Z,107.51
2016-11-30T04:11:25.350Z,109.04
2016-11-30T04:12:25.364Z,106.55
2016-11-30T04:13:25.396Z,108.12
2016-11-30T04:14:25.346Z,111.12
2016-11-30T04:15:25.339Z,108.63
2016-11-30T04:16:25.353Z,110.57
2016-11-30T04:17:25.323Z,108.96
2016-11-30T04:18:25.361Z,106.72
2016-11-30T04:19:25.345Z,101.7
2016-11-30T04:20:25.318Z,107.74
2016-11-30T04:21:25.346Z,109.24
2016-11-30T04:22:25.314Z,113.3
2016-11-30T04:23:25.325Z,109.85
2016-11-30T04:24:25.395Z,107.49
2016-11-30T04:25:25.386Z,109.77
2016-11-30T04:26:25.361Z,109.66
2016-11-30T04:27:25.358Z,111.68
2016-11-30T04:28:25.348Z,108.91
2016-11-30T04:29:25.419Z,108.44
2016-11-30T04:30:25.455Z,108.93
2016-11-30T04:31:25.425Z,105.71
2016-11-30T04:32:25.423Z,97.08
2016-11-30T04:33:25.324Z,95.5
2016-11-30T04:34:25.415Z,99.5
2016-11-30T04:35:25.374Z,104.64
2016-11-30T04:36:25.410Z,108.18
2016-11-30T04:37:25.354Z,105.57
2016-11-30T04:38:25.433Z,100.07
2016-11-30T04:39:25.373Z,96.76
2016-11-30T04:40:25.354Z,95.96
2016-11-30T04:41:25.380Z,98.05
2016-11-30T04:42:25.414Z,99.25
2016-11-30T04:43:25.382Z,99.25
2016-11-30T04:44:25.368Z,102.26
2016-11-30T04:45:25.438Z,104.3
2016-11-30T04:46:25.375Z,108.26
2016-11-30T04:47:25.362Z,104.44
2016-11-30T04:48:25.365Z,105.91
2016-11-30T04:49:25.422Z,110.08
2016-11-30T04:50:25.342Z,110.04
2016-11-30T04:51:25.431Z,107.2
2016-11-30T04:52:25.343Z,107.91
2016-11-30T04:53:25.364Z,108.43
2016-11-30T04:54:25.375Z,109.53
2016-11-30T04:55:25.386Z,104.74
2016-11-30T04:56:25.385Z,107.46
2016-11-30T04:57:25.421Z,108.74
2016-11-30T04:58:25.430Z,110.22
2016-11-30T04:59:25.438Z,111.43
2016-11-30T05:00:25.409Z,110.51
2016-11-30T05:01:25.374Z,111.84
2016-11-30T05:02:25.463Z,113.1
2016-11-30T05:03:25.370Z,113.15
2016-11-30T05:04:25.424Z,110.65
2016-11-30T05:05:25.361Z,108.92
2016-11-30T05:06:25.413Z,109.9
2016-11-30T05:07:25.504Z,112.09
2016-11-30T05:08:25.395Z,111.58
2016-11-30T05:09:25.443Z,109.87
2016-11-30T05:10:25.432Z,108.14
2016-11-30T05:11:25.476Z,109.18
2016-11-30T05:12:25.427Z,111.22
2016-11-30T05:13:25.389Z,104.21
2016-11-30T05:14:25.501Z,102.5
2016-11-30T05:15:25.433Z,102.25
2016-11-30T05:16:25.494Z,100.97
2016-11-30T05:17:25.430Z,99.14
2016-11-30T05:18:25.451Z,95.13
2016-11-30T05:19:25.485Z,95.19
2016-11-30T05:20:25.514Z,96.16
2016-11-30T05:21:25.482Z,98.21
2016-11-30T05:22:25.455Z,100.68
2016-11-30T05:23:25.508Z,100.54
2016-11-30T05:24:25.476Z,96.78
2016-11-30T05:25:25.509Z,102.11
2016-11-30T05:26:25.472Z,97.06
2016-11-30T05:27:25.543Z,100.38
2016-11-30T05:28:25.571Z,99.29
2016-11-30T05:29:25.498Z,102.04
2016-11-30T05:30:25.419Z,103.85
2016-11-30T05:31:25.470Z,105.84
2016-11-30T05:32:25.415Z,104.43
2016-11-30T05:33:25.432Z,99.36
2016-11-30T05:34:25.519Z,101.11
2016-11-30T05:35:25.419Z,105.34
2016-11-30T05:36:25.513Z,100.03
2016-11-30T05:37:25.500Z,98.01
2016-11-30T05:38:25.525Z,101.81
2016-11-30T05:39:25.512Z,97.72
2016-11-30T05:40:25.437Z,98.64
2016-11-30T05:41:26.514Z,102.91
2016-11-30T05:42:25.466Z,102.13
2016-11-30T05:43:25.525Z,101.34
2016-11-30T05:44:25.464Z,97.32
2016-11-30T05:45:25.558Z,99.62
2016-11-30T05:46:25.523Z,102.2
2016-11-30T05:47:25.513Z,101.97
2016-11-30T05:48:25.455Z,100.3
2016-11-30T05:49:25.558Z,102.11
2016-11-30T05:50:25.489Z,103.71
2016-11-30T05:51:25.547Z,104.32
2016-11-30T05:52:25.512Z,103.5
2016-11-30T05:53:25.485Z,104.82
2016-11-30T05:54:25.510Z,99.78
2016-11-30T05:55:25.582Z,104.82
2016-11-30T05:56:25.484Z,102.25
2016-11-30T05:57:25.515Z,103.82
2016-11-30T05:58:25.545Z,104.33
2016-11-30T05:59:25.501Z,102.83
2016-11-30T06:00:25.690Z,100.22
2016-11-30T06:01:25.423Z,100.02
2016-11-30T06:02:25.520Z,98.48
2016-11-30T06:03:25.628Z,101.52
2016-11-30T06:04:25.533Z,98.98
2016-11-30T06:05:25.606Z,103.31
2016-11-30T06:06:25.541Z,102.11
2016-11-30T06:07:25.547Z,99.76
2016-11-30T06:08:25.511Z,100.03
2016-11-30T06:09:25.461Z,99.55
2016-11-30T06:10:25.449Z,101.07
2016-11-30T06:11:25.567Z,98.02
2016-11-30T06:12:25.444Z,102.04
2016-11-30T06:13:25.449Z,100.25
2016-11-30T06:14:25.524Z,97.35
2016-11-30T06:15:25.491Z,99.08
2016-11-30T06:16:25.502Z,101.12
2016-11-30T06:17:25.503Z,99.57
2016-11-30T06:18:25.453Z,97.82
2016-11-30T06:19:25.486Z,98.05
2016-11-30T06:20:25.478Z,99.86
2016-11-30T06:21:25.494Z,104.16
2016-11-30T06:22:25.491Z,106.66
2016-11-30T06:23:25.542Z,104.64
2016-11-30T06:24:25.528Z,101.59
2016-11-30T06:25:25.491Z,99.83
2016-11-30T06:26:25.483Z,104.08
2016-11-30T06:27:25.490Z,104.76
2016-11-30T06:28:25.431Z,104.24
2016-11-30T06:29:25.478Z,102.79
2016-11-30T06:30:25.452Z,100.74
2016-11-30T06:31:25.481Z,99.73
2016-11-30T06:32:25.517Z,104.55
2016-11-30T06:33:25.541Z,105.04
2016-11-30T06:34:25.512Z,108.49
2016-11-30T06:35:25.631Z,104.24
2016-11-30T06:36:25.506Z,102.78
2016-11-30T06:37:25.542Z,107.06
2016-11-30T06:38:25.493Z,107.32
2016-11-30T06:39:25.551Z,104.3
2016-11-30T06:40:25.624Z,107.58
2016-11-30T06:41:25.524Z,110.37
2016-11-30T06:42:25.482Z,106.17
2016-11-30T06:43:25.510Z,104.41
2016-11-30T06:44:25.605Z,107.9
2016-11-30T06:45:25.602Z,106.86
2016-11-30T06:46:25.580Z,109.66
2016-11-30T06:47:25.674Z,105.11
2016-11-30T06:48:25.529Z,107.39
2016-11-30T06:49:25.578Z,107.21
2016-11-30T06:50:25.549Z,109.06
2016-11-30T06:51:25.518Z,107.08
2016-11-30T06:52:25.560Z,102.35
2016-11-30T06:53:25.562Z,98.86
2016-11-30T06:54:25.489Z,98.63
2016-11-30T06:55:25.602Z,99.66
2016-11-30T06:56:25.521Z,100.94
2016-11-30T06:57:25.553Z,102.67
2016-11-30T06:58:25.558Z,100.39
2016-11-30T06:59:25.614Z,101.48
2016-11-30T07:00:25.530Z,96.96
2016-11-30T07:01:25.504Z,93.74
2016-11-30T07:02:25.569Z,95.01
2016-11-30T07:03:25.524Z,96.56
2016-11-30T07:04:25.533Z,92
2016-11-30T07:05:25.554Z,87.25
2016-11-30T07:06:25.607Z,88.04
2016-11-30T07:07:26.176Z,84.78
2016-11-30T07:08:25.527Z,86.02
2016-11-30T07:09:25.496Z,82.24
2016-11-30T07:10:25.498Z,80.48
2016-11-30T07:11:25.601Z,79.01
2016-11-30T07:12:25.571Z,79.05
2016-11-30T07:13:25.490Z,72.92
2016-11-30T07:14:25.508Z,72.97
2016-11-30T07:15:25.653Z,73.5
2016-11-30T07:16:25.542Z,73.02
2016-11-30T07:17:25.477Z,71.15
2016-11-30T07:18:25.522Z,72.21
2016-11-30T07:19:25.578Z,73.19
2016-11-30T07:20:25.591Z,75.03
2016-11-30T07:21:25.525Z,74.51
2016-11-30T07:22:25.530Z,77.85
2016-11-30T07:23:25.496Z,78.36
2016-11-30T07:24:25.563Z,78.15
2016-11-30T07:25:25.560Z,76.08
2016-11-30T07:26:25.530Z,76.85
2016-11-30T07:27:25.476Z,79.46
2016-11-30T07:28:25.517Z,84.08
2016-11-30T07:29:25.704Z,83.53
2016-11-30T07:30:25.539Z,82.27
2016-11-30T07:31:25.674Z,86.03
2016-11-30T07:32:25.575Z,85.27
2016-11-30T07:33:25.643Z,86.49
2016-11-30T07:46:56.162Z,119
2016-11-30T07:47:56.142Z,116.31
2016-11-30T07:48:56.041Z,122.55
2016-11-30T07:49:56.012Z,121.61
2016-11-30T07:50:56.177Z,124.34
2016-11-30T07:51:56.165Z,130.76
2016-11-30T07:52:56.095Z,126.29
2016-11-30T07:53:56.165Z,131.75
2016-11-30T07:54:56.041Z,137.94
2016-11-30T07:55:56.103Z,139.67
2016-11-30T07:56:56.112Z,140.14
2016-11-30T07:57:56.200Z,145.5
2016-11-30T07:58:56.047Z,146.23
2016-11-30T07:59:56.235Z,147.71
2016-11-30T08:00:56.137Z,149.42
2016-11-30T08:01:56.179Z,152.88
2016-11-30T08:02:56.354Z,158.26
2016-11-30T08:03:56.204Z,159.39
2016-11-30T08:04:56.078Z,156.88
2016-11-30T08:05:56.058Z,157.39
2016-11-30T08:06:56.328Z,160.85
2016-11-30T08:07:56.233Z,161.59
2016-11-30T08:08:56.102Z,163.6
2016-11-30T08:09:56.083Z,170.52
2016-11-30T08:10:56.511Z,172.47
2016-11-30T08:11:56.174Z,171.97
2016-11-30T08:12:56.103Z,174.61
2016-11-30T08:13:56.111Z,179.79
2016-11-30T08:14:56.352Z,178.97
2016-11-30T08:15:56.206Z,183.91
2016-11-30T08:16:56.213Z,185.6
2016-11-30T08:17:56.137Z,189.25
2016-11-30T08:18:56.018Z,192.51
2016-11-30T08:19:56.152Z,190.03
2016-11-30T08:20:56.021Z,192.49
2016-11-30T08:21:56.065Z,192.43
2016-11-30T08:22:56.200Z,201.1
2016-11-30T08:23:56.185Z,201.87
2016-11-30T08:24:56.162Z,199.9
2016-11-30T08:25:56.165Z,207.42
2016-11-30T08:26:56.170Z,213.12
2016-11-30T08:27:56.065Z,212.62
2016-11-30T08:28:56.100Z,215.04
2016-11-30T08:29:56.224Z,215.55
2016-11-30T08:30:56.097Z,219.64
2016-11-30T08:31:56.148Z,221.48
2016-11-30T08:32:56.143Z,227.18
2016-11-30T08:33:56.133Z,230.71
2016-11-30T08:34:56.244Z,231.88
2016-11-30T08:35:56.229Z,236
2016-11-30T08:36:56.102Z,243.36
2016-11-30T08:37:56.177Z,249.33
2016-11-30T08:38:56.120Z,251.49
2016-11-30T08:39:56.202Z,256.89
2016-11-30T08:40:56.100Z,265.15
2016-11-30T08:41:56.319Z,266.74
2016-11-30T08:42:56.176Z,267.66
2016-11-30T08:43:56.192Z,274.47
2016-11-30T08:44:56.103Z,280.77
2016-11-30T08:45:56.270Z,282.63
2016-11-30T08:46:56.137Z,290.23
2016-11-30T08:47:56.057Z,295.77
2016-11-30T08:48:56.146Z,295.32
2016-11-30T08:49:56.100Z,299.48
2016-11-30T08:50:56.083Z,304.94
2016-11-30T08:51:56.247Z,312.02
2016-11-30T08:52:56.783Z,320.35
2016-11-30T08:53:56.199Z,321.88
2016-11-30T08:54:57.222Z,331.74
2016-11-30T08:55:56.240Z,333.95
2016-11-30T08:56:56.212Z,340.98
2016-11-30T08:57:56.225Z,345.24
2016-11-30T08:58:56.287Z,354.74
2016-11-30T08:59:56.179Z,359.06
2016-11-30T09:00:56.185Z,362.39
2016-11-30T09:01:56.329Z,370.51
2016-11-30T09:02:56.296Z,374.87
2016-11-30T09:03:56.238Z,382.8
2016-11-30T09:04:56.181Z,387.61
2016-11-30T09:05:56.211Z,384.54
2016-11-30T09:06:56.311Z,388.37
2016-11-30T09:07:56.192Z,384.68
2016-11-30T09:08:56.144Z,391.48
2016-11-30T09:09:56.237Z,396.71
2016-11-30T09:10:56.342Z,400.7
2016-11-30T09:11:56.216Z,398.57
2016-11-30T09:12:56.406Z,403.07
2016-11-30T09:13:56.348Z,401.93
2016-11-30T09:14:56.193Z,405.02
2016-11-30T09:15:56.073Z,411.27
2016-11-30T09:16:56.207Z,413.25
2016-11-30T09:17:56.238Z,414
2016-11-30T09:18:56.285Z,421.41
2016-11-30T09:19:56.239Z,427.44
2016-11-30T09:20:56.274Z,426.85
2016-11-30T09:21:56.309Z,427.68
2016-11-30T09:22:56.374Z,438.21
2016-11-30T09:23:57.257Z,442.59
2016-11-30T09:24:56.138Z,450.05
2016-11-30T09:25:56.228Z,453.19
2016-11-30T09:26:56.328Z,455.57
2016-11-30T09:27:56.186Z,457.68
2016-11-30T09:28:56.300Z,455.68
2016-11-30T09:29:56.133Z,452.71
2016-11-30T09:34:26.683Z,482.24
2016-11-30T09:35:26.813Z,491.81
2016-11-30T09:36:26.797Z,491.11
2016-11-30T09:37:26.782Z,506.85
2016-11-30T09:38:26.649Z,526.38
2016-11-30T09:39:26.712Z,541.06
2016-11-30T09:40:26.675Z,565.57
2016-11-30T09:41:26.754Z,562.09
2016-11-30T09:42:26.663Z,568.92
2016-11-30T09:43:26.771Z,587.61
2016-11-30T09:44:26.797Z,588.5
2016-11-30T09:45:26.661Z,573.04
2016-11-30T09:46:26.665Z,583.68
2016-11-30T09:47:26.838Z,587.48
2016-11-30T09:48:26.579Z,586.15
2016-11-30T09:49:26.694Z,608.34
2016-11-30T09:50:26.732Z,606.8
2016-11-30T09:51:26.517Z,604.07
2016-11-30T09:52:26.670Z,610.07
2016-11-30T09:53:26.731Z,617.97
2016-11-30T09:54:26.829Z,643.43
2016-11-30T09:55:26.806Z,638.75
2016-11-30T09:56:28.024Z,646.59
2016-11-30T09:57:26.795Z,644.77
2016-11-30T09:58:26.673Z,647.59
2016-11-30T09:59:26.769Z,670.69
2016-11-30T10:00:26.983Z,665.57
2016-11-30T10:01:26.752Z,658.56
2016-11-30T10:02:26.713Z,658.74
2016-11-30T10:03:26.893Z,651.84
2016-11-30T10:04:26.826Z,621.77
2016-11-30T10:05:26.899Z,620.83
2016-11-30T10:06:27.993Z,626.23
2016-11-30T10:07:26.726Z,615.72
2016-11-30T10:08:26.843Z,623.75
2016-11-30T10:09:26.880Z,626.37
2016-11-30T10:10:26.842Z,616.72
2016-11-30T10:11:26.751Z,624.99
2016-11-30T10:12:26.705Z,620.15
2016-11-30T10:13:26.729Z,626.41
2016-11-30T10:14:26.873Z,634.02
2016-11-30T10:15:26.775Z,624.87
2016-11-30T10:16:26.811Z,605.04
2016-11-30T10:17:26.709Z,607.66
2016-11-30T10:18:26.718Z,604.3
2016-11-30T10:19:26.665Z,598.89
2016-11-30T10:20:26.754Z,606.91
2016-11-30T10:21:26.731Z,606.33
2016-11-30T10:22:26.803Z,599
2016-11-30T10:23:26.728Z,600.15
2016-11-30T10:24:26.808Z,610.81
2016-11-30T10:25:26.771Z,610.68
2016-11-30T10:26:26.709Z,604.07
2016-11-30T10:27:26.723Z,614.12
2016-11-30T10:28:26.725Z,606.88
2016-11-30T10:29:26.741Z,604.11
2016-11-30T10:30:26.924Z,598
2016-11-30T10:31:26.889Z,589.46
2016-11-30T10:32:26.757Z,600.96
2016-11-30T10:33:26.673Z,604.67
2016-11-30T10:34:27.048Z,600.83
2016-11-30T10:35:27.145Z,604.98
2016-11-30T10:36:27.129Z,600.99
2016-11-30T10:37:27.256Z,595.18
2016-11-30T10:38:26.835Z,597.15
2016-11-30T10:39:27.086Z,604.38
2016-11-30T10:40:27.903Z,613.59
2016-11-30T10:41:26.984Z,626.89
2016-11-30T10:42:26.980Z,627.2
2016-11-30T10:43:26.809Z,614.18
2016-11-30T10:44:27.080Z,621.57
2016-11-30T10:45:26.501Z,615.68
2016-11-30T10:46:26.831Z,612.8
2016-11-30T10:47:26.519Z,620.5
2016-11-30T10:48:26.938Z,639.74
2016-11-30T10:49:26.771Z,639.45
2016-11-30T10:50:26.755Z,627.49
2016-11-30T10:51:26.908Z,634.07
2016-11-30T10:52:26.887Z,646.38
2016-11-30T10:53:26.859Z,665.72
2016-11-30T10:54:27.339Z,672.2
2016-11-30T10:55:27.090Z,671.42
2016-11-30T10:56:27.117Z,664.01
2016-11-30T10:57:26.897Z,662.15
2016-11-30T10:58:27.013Z,665.37
2016-11-30T10:59:27.203Z,663.19
2016-11-30T11:00:26.671Z,662.76
2016-11-30T11:01:27.136Z,671.24
2016-11-30T11:02:27.036Z,668.06
2016-11-30T11:03:27.213Z,662.17
2016-11-30T11:04:27.182Z,666.98
2016-11-30T11:05:26.755Z,664.01
2016-11-30T11:06:27.137Z,660.17
2016-11-30T11:07:26.818Z,670.26
2016-11-30T11:08:27.795Z,668.75
2016-11-30T11:09:27.064Z,679.99
2016-11-30T11:10:26.963Z,686.91
2016-11-30T11:11:27.268Z,681.7
2016-11-30T11:12:27.187Z,684.1
2016-11-30T11:13:27.275Z,683.37
2016-11-30T11:14:26.807Z,691.66
2016-11-30T11:15:27.016Z,706.97
2016-11-30T11:16:26.980Z,720.2
2016-11-30T11:17:26.797Z,744.57
2016-11-30T11:18:27.195Z,767.18
2016-11-30T11:19:27.202Z,773.83
2016-11-30T11:20:27.035Z,781.62
2016-11-30T11:21:27.288Z,786.34
2016-11-30T11:22:27.103Z,786.81
2016-11-30T11:23:26.958Z,796.57
2016-11-30T11:24:26.981Z,800.87
2016-11-30T11:25:27.099Z,811.36
2016-11-30T11:26:27.197Z,822.71
2016-11-30T11:27:27.071Z,828.21
2016-11-30T11:28:27.052Z,824.76
2016-11-30T11:29:27.084Z,817.32
2016-11-30T11:30:27.159Z,814.99
2016-11-30T11:31:26.987Z,823.13
2016-11-30T11:32:26.918Z,824.18
2016-11-30T11:33:27.225Z,827.23
2016-11-30T11:34:26.996Z,822.51
2016-11-30T11:35:27.018Z,820.21
2016-11-30T11:36:26.862Z,813.01
2016-11-30T11:37:27.077Z,808.07
2016-11-30T11:38:27.469Z,825.27
2016-11-30T11:39:27.037Z,822.06
2016-11-30T11:40:27.033Z,826.57
2016-11-30T11:41:27.112Z,828.94
2016-11-30T11:42:26.788Z,830.66
2016-11-30T11:43:27.053Z,827.38
2016-11-30T11:44:27.119Z,835.89
2016-11-30T11:45:26.770Z,845.25
2016-11-30T11:46:26.861Z,846.44
2016-11-30T11:47:27.052Z,847.6
2016-11-30T11:48:27.091Z,852.78
2016-11-30T11:49:26.871Z,852.06
2016-11-30T11:50:27.198Z,848.55
2016-11-30T11:51:27.171Z,855.88
2016-11-30T11:52:26.831Z,863.26
2016-11-30T11:53:26.917Z,864.7
2016-11-30T11:54:26.719Z,869.24
2016-11-30T11:55:26.902Z,853.68
2016-11-30T11:56:27.145Z,858.13
2016-11-30T11:57:27.004Z,866.08
2016-11-30T11:58:27.163Z,872.69
2016-11-30T11:59:27.177Z,888.53
2016-11-30T12:00:26.996Z,895.52
2016-11-30T12:01:27.237Z,901.04
2016-11-30T12:02:27.302Z,895.67
2016-11-30T12:03:29.960Z,895.16
2016-11-30T12:04:27.445Z,897.64
2016-11-30T12:05:31.993Z,888.27
2016-11-30T12:06:27.253Z,898.97
2016-11-30T12:07:27.257Z,903.67
2016-11-30T12:08:27.184Z,902.15
2016-11-30T12:09:27.488Z,909.86
2016-11-30T12:10:27.155Z,909.43
2016-11-30T12:11:29.903Z,905.93
2016-11-30T12:12:27.413Z,890.09
2016-11-30T12:13:27.229Z,887.79
2016-11-30T12:14:27.038Z,893.95
2016-11-30T12:15:27.022Z,880.94
2016-11-30T12:16:27.117Z,889.73
2016-11-30T12:17:27.128Z,883.88
2016-11-30T12:18:27.207Z,876.79
2016-11-30T12:19:27.203Z,877.58
2016-11-30T12:20:27.038Z,883.05
2016-11-30T12:21:27.097Z,887.77
2016-11-30T12:22:27.476Z,892.99
2016-11-30T12:23:26.966Z,900.17
2016-11-30T12:24:27.389Z,901.11
2016-11-30T12:25:27.210Z,903.62
2016-11-30T12:26:27.033Z,902.7
2016-11-30T12:27:27.045Z,902.15
2016-11-30T12:28:27.048Z,908.81
2016-11-30T12:29:27.209Z,915.66
2016-11-30T12:30:27.135Z,908.68
2016-11-30T12:31:27.044Z,901.42
2016-11-30T12:32:27.119Z,918.55
2016-11-30T12:33:27.225Z,936.08
2016-11-30T12:34:27.377Z,929.49
2016-11-30T12:35:27.150Z,935.51
2016-11-30T12:36:27.018Z,941.17
2016-11-30T12:37:27.108Z,932.83
2016-11-30T12:38:27.322Z,940.81
2016-11-30T12:39:27.234Z,935.2
2016-11-30T12:40:26.901Z,944.35
2016-11-30T12:41:27.138Z,947.95
2016-11-30T12:42:27.163Z,937.67
2016-11-30T12:43:27.202Z,927.52
2016-11-30T12:44:27.167Z,915.97
2016-11-30T12:45:27.123Z,924.21
2016-11-30T12:46:27.077Z,917.99
2016-11-30T12:47:27.404Z,920.63
2016-11-30T12:48:27.151Z,916.57
2016-11-30T12:49:50.347Z,910.93